createdAt,value
2024-03-09T00:00:29.298Z,3.44
2024-03-09T00:03:01.367Z,3.44
2024-03-09T00:05:29.346Z,3.38
2024-03-09T00:07:58.529Z,3.56
2024-03-09T00:10:28.270Z,3.50
2024-03-09T00:12:56.447Z,3.44
2024-03-09T00:15:25.340Z,3.56
2024-03-09T00:17:57.376Z,3.63
2024-03-09T00:20:29.150Z,3.50
2024-03-09T00:22:59.407Z,3.63
2024-03-09T00:25:30.289Z,3.56
2024-03-09T00:27:58.744Z,3.63
2024-03-09T00:30:33.049Z,3.63
2024-03-09T00:33:01.586Z,3.56
2024-03-09T00:35:30.694Z,3.56
2024-03-09T00:37:59.509Z,3.44
2024-03-09T00:40:29.819Z,3.38
2024-03-09T00:42:58.696Z,3.38
2024-03-09T00:45:26.883Z,3.38
2024-03-09T00:47:53.746Z,3.63
2024-03-09T00:50:22.626Z,3.63
2024-03-09T00:52:49.725Z,3.56
2024-03-09T00:55:16.896Z,3.50
2024-03-09T00:57:52.755Z,3.50
2024-03-09T01:00:21.221Z,3.38
2024-03-09T01:02:52.241Z,3.38
2024-03-09T01:05:21.475Z,3.38
2024-03-09T01:07:50.981Z,3.56
2024-03-09T01:10:17.782Z,3.50
2024-03-09T01:12:44.823Z,3.50
2024-03-09T01:15:11.799Z,3.38
2024-03-09T01:17:39.550Z,3.25
2024-03-09T01:20:09.077Z,3.25
2024-03-09T01:22:37.570Z,3.13
2024-03-09T01:25:05.223Z,3.00
2024-03-09T01:27:31.930Z,3.13
2024-03-09T01:30:02.047Z,3.00
2024-03-09T01:32:29.700Z,2.94
2024-03-09T01:34:57.748Z,2.94
2024-03-09T01:37:25.300Z,2.88
2024-03-09T01:39:52.706Z,2.94
2024-03-09T01:42:20.270Z,2.75
2024-03-09T01:44:49.110Z,2.88
2024-03-09T01:47:20.090Z,2.69
2024-03-09T01:49:47.280Z,2.69
2024-03-09T01:52:15.095Z,2.63
2024-03-09T01:54:43.639Z,2.63
2024-03-09T01:57:11.002Z,2.56
2024-03-09T01:59:40.175Z,2.56
2024-03-09T02:02:07.796Z,2.44
2024-03-09T02:04:36.056Z,2.50
2024-03-09T02:07:03.651Z,2.44
2024-03-09T02:09:30.561Z,2.44
2024-03-09T02:12:02.140Z,2.44
2024-03-09T02:14:29.580Z,2.38
2024-03-09T02:16:56.531Z,2.50
2024-03-09T02:19:23.267Z,2.50
2024-03-09T02:21:50.114Z,2.44
2024-03-09T02:24:21.959Z,2.44
2024-03-09T02:26:51.067Z,2.44
2024-03-09T02:29:20.049Z,2.38
2024-03-09T02:31:47.094Z,2.31
2024-03-09T02:34:13.865Z,2.38
2024-03-09T02:36:40.549Z,2.38
2024-03-09T02:39:10.815Z,2.31
2024-03-09T02:41:38.255Z,2.19
2024-03-09T02:44:05.907Z,2.06
2024-03-09T02:46:32.741Z,2.06
2024-03-09T02:48:59.413Z,2.00
2024-03-09T02:51:26.858Z,1.94
2024-03-09T02:53:53.973Z,2.06
2024-03-09T02:56:21.914Z,2.00
2024-03-09T02:58:49.986Z,2.00
2024-03-09T03:01:21.706Z,2.06
2024-03-09T03:03:58.297Z,2.00
2024-03-09T03:06:29.336Z,2.00
2024-03-09T03:08:58.672Z,1.88
2024-03-09T03:11:25.661Z,1.88
2024-03-09T03:13:53.883Z,1.94
2024-03-09T03:16:32.998Z,2.00
2024-03-09T03:19:00.964Z,1.88
2024-03-09T03:21:28.604Z,1.88
2024-03-09T03:23:55.877Z,2.00
2024-03-09T03:26:22.791Z,2.00
2024-03-09T03:28:51.875Z,2.00
2024-03-09T03:31:21.107Z,1.81
2024-03-09T03:33:50.610Z,1.94
2024-03-09T03:36:20.523Z,1.94
2024-03-09T03:38:48.751Z,1.88
2024-03-09T03:41:18.258Z,1.94
2024-03-09T03:43:46.164Z,1.94
2024-03-09T03:46:15.377Z,2.00
2024-03-09T03:48:46.620Z,1.94
2024-03-09T03:51:15.246Z,1.94
2024-03-09T03:53:43.438Z,1.94
2024-03-09T03:56:11.179Z,1.94
2024-03-09T03:58:39.110Z,2.06
2024-03-09T04:01:07.451Z,2.13
2024-03-09T04:03:38.265Z,2.13
2024-03-09T04:06:08.520Z,2.06
2024-03-09T04:08:36.431Z,2.00
2024-03-09T04:11:07.633Z,2.00
2024-03-09T04:13:34.578Z,2.00
2024-03-09T04:16:04.801Z,2.00
2024-03-09T04:18:31.944Z,2.06
2024-03-09T04:20:59.128Z,2.00
2024-03-09T04:23:26.062Z,1.94
2024-03-09T04:25:54.251Z,2.00
2024-03-09T04:28:29.003Z,1.88
2024-03-09T04:30:58.420Z,1.75
2024-03-09T04:33:25.819Z,1.88
2024-03-09T04:35:54.107Z,1.88
2024-03-09T04:38:21.932Z,2.00
2024-03-09T04:40:50.917Z,2.00
2024-03-09T04:43:19.439Z,1.94
2024-03-09T04:45:47.152Z,1.94
2024-03-09T04:48:15.288Z,1.81
2024-03-09T04:50:47.971Z,1.69
2024-03-09T04:53:16.018Z,1.69
2024-03-09T04:55:49.121Z,1.56
2024-03-09T04:58:16.797Z,1.75
2024-03-09T05:00:44.781Z,1.69
2024-03-09T05:03:15.759Z,1.69
2024-03-09T05:05:43.840Z,1.69
2024-03-09T05:08:10.773Z,1.69
2024-03-09T05:10:41.159Z,1.69
2024-03-09T05:13:09.139Z,1.69
2024-03-09T05:15:37.507Z,1.75
2024-03-09T05:18:09.584Z,1.81
2024-03-09T05:20:37.024Z,1.75
2024-03-09T05:23:05.416Z,1.81
2024-03-09T05:25:32.598Z,2.00
2024-03-09T05:27:59.959Z,1.94
2024-03-09T05:30:30.740Z,1.88
2024-03-09T05:33:00.220Z,1.81
2024-03-09T05:35:29.548Z,1.81
2024-03-09T05:38:00.320Z,1.81
2024-03-09T05:40:30.189Z,1.81
2024-03-09T05:43:00.047Z,1.88
2024-03-09T05:45:26.907Z,1.94
2024-03-09T05:47:55.572Z,2.06
2024-03-09T05:50:25.422Z,2.13
2024-03-09T05:52:55.328Z,2.19
2024-03-09T05:55:23.162Z,2.31
2024-03-09T05:57:51.648Z,2.31
2024-03-09T06:00:20.940Z,2.44
2024-03-09T06:02:48.262Z,2.44
2024-03-09T06:05:16.769Z,2.44
2024-03-09T06:07:47.849Z,2.38
2024-03-09T06:10:18.747Z,2.38
2024-03-09T06:12:50.517Z,2.25
2024-03-09T06:15:20.700Z,2.25
2024-03-09T06:17:57.168Z,2.19
2024-03-09T06:20:33.210Z,2.25
2024-03-09T06:23:00.002Z,2.25
2024-03-09T06:25:27.595Z,2.31
2024-03-09T06:27:57.026Z,2.44
2024-03-09T06:30:28.968Z,2.50
2024-03-09T06:32:59.833Z,2.63
2024-03-09T06:35:27.266Z,2.75
2024-03-09T06:38:00.766Z,2.81
2024-03-09T06:40:32.940Z,2.75
2024-03-09T06:43:01.412Z,2.75
2024-03-09T06:45:29.335Z,2.75
2024-03-09T06:48:00.444Z,2.75
2024-03-09T06:50:28.718Z,2.88
2024-03-09T06:52:56.385Z,3.00
2024-03-09T06:55:30.433Z,3.13
2024-03-09T06:58:02.841Z,3.19
2024-03-09T07:00:31.629Z,3.25
2024-03-09T07:03:02.112Z,3.31
2024-03-09T07:05:31.766Z,3.44
2024-03-09T07:08:02.074Z,3.44
2024-03-09T07:10:30.178Z,3.50
2024-03-09T07:12:58.342Z,3.50
2024-03-09T07:15:30.696Z,3.56
2024-03-09T07:17:58.231Z,3.63
2024-03-09T07:20:27.396Z,3.69
2024-03-09T07:22:54.966Z,3.69
2024-03-09T07:25:25.935Z,3.69
2024-03-09T07:27:57.893Z,3.69
2024-03-09T07:30:26.032Z,3.75
2024-03-09T07:32:55.829Z,3.81
2024-03-09T07:35:29.034Z,3.75
2024-03-09T07:38:00.009Z,3.81
2024-03-09T07:40:27.967Z,3.88
2024-03-09T07:42:55.223Z,3.81
2024-03-09T07:45:31.336Z,3.88
2024-03-09T07:48:00.717Z,3.88
2024-03-09T07:50:28.941Z,4.06
2024-03-09T07:52:57.637Z,4.19
2024-03-09T07:55:27.319Z,4.44
2024-03-09T07:58:05.175Z,4.63
2024-03-09T08:00:40.782Z,4.69
2024-03-09T08:03:07.490Z,4.69
2024-03-09T08:05:34.398Z,4.75
2024-03-09T08:08:04.538Z,4.81
2024-03-09T08:10:33.388Z,4.81
2024-03-09T08:13:00.571Z,4.81
2024-03-09T08:15:30.189Z,4.81
2024-03-09T08:18:00.268Z,4.81
2024-03-09T08:20:28.028Z,4.88
2024-03-09T08:22:55.793Z,4.81
2024-03-09T08:25:26.853Z,4.88
2024-03-09T08:27:53.698Z,4.88
2024-03-09T08:30:20.547Z,4.88
2024-03-09T08:32:49.298Z,4.94
2024-03-09T08:35:18.099Z,4.94
2024-03-09T08:37:46.490Z,4.94
2024-03-09T08:40:18.527Z,5.00
2024-03-09T08:42:53.390Z,5.13
2024-03-09T08:45:24.772Z,5.25
2024-03-09T08:47:53.335Z,5.44
2024-03-09T08:50:22.973Z,5.56
2024-03-09T08:52:50.544Z,5.75
2024-03-09T08:55:18.480Z,5.94
2024-03-09T08:57:47.617Z,6.00
2024-03-09T09:00:16.742Z,6.31
2024-03-09T09:02:43.738Z,6.56
2024-03-09T09:05:13.664Z,6.75
2024-03-09T09:07:42.129Z,6.88
2024-03-09T09:10:12.145Z,6.88
2024-03-09T09:12:40.629Z,6.94
2024-03-09T09:15:17.998Z,7.06
2024-03-09T09:17:45.266Z,7.25
2024-03-09T09:20:15.308Z,7.31
2024-03-09T09:22:44.681Z,7.44
2024-03-09T09:25:14.584Z,7.63
2024-03-09T09:27:42.001Z,7.81
2024-03-09T09:30:10.713Z,7.88
2024-03-09T09:32:39.453Z,7.94
2024-03-09T09:35:06.610Z,8.13
2024-03-09T09:37:35.137Z,8.19
2024-03-09T09:40:06.200Z,8.19
2024-03-09T09:42:33.550Z,8.19
2024-03-09T09:45:01.595Z,8.25
2024-03-09T09:47:30.491Z,8.38
2024-03-09T09:49:58.657Z,8.38
2024-03-09T09:52:26.391Z,8.31
2024-03-09T09:54:57.850Z,8.25
2024-03-09T09:57:26.488Z,8.44
2024-03-09T09:59:53.709Z,8.50
2024-03-09T10:02:24.254Z,8.38
2024-03-09T10:04:51.886Z,8.50
2024-03-09T10:07:18.909Z,8.44
2024-03-09T10:09:48.301Z,8.63
2024-03-09T10:12:23.650Z,8.88
2024-03-09T10:14:51.412Z,9.00
2024-03-09T10:17:21.779Z,8.69
2024-03-09T10:19:53.909Z,8.94
2024-03-09T10:22:22.204Z,8.88
2024-03-09T10:24:57.437Z,9.00
2024-03-09T10:27:28.532Z,9.25
2024-03-09T10:30:11.408Z,9.25
2024-03-09T10:32:43.346Z,9.38
2024-03-09T10:35:12.574Z,9.50
2024-03-09T10:37:40.776Z,9.38
2024-03-09T10:40:13.688Z,9.19
2024-03-09T10:42:47.078Z,9.50
2024-03-09T10:45:17.127Z,9.69
2024-03-09T10:47:52.104Z,9.69
2024-03-09T10:50:27.385Z,9.56
2024-03-09T10:53:09.438Z,9.69
2024-03-09T10:55:49.835Z,10.19
2024-03-09T10:58:18.542Z,10.13
2024-03-09T11:00:51.088Z,9.94
2024-03-09T11:03:24.371Z,10.13
2024-03-09T11:05:54.565Z,10.31
2024-03-09T11:08:24.138Z,10.38
2024-03-09T11:10:51.997Z,10.38
2024-03-09T11:13:20.573Z,10.50
2024-03-09T11:15:53.720Z,10.38
2024-03-09T11:18:22.849Z,10.44
2024-03-09T11:21:03.955Z,10.56
2024-03-09T11:23:37.544Z,10.50
2024-03-09T11:26:05.250Z,10.69
2024-03-09T11:28:44.328Z,10.56
2024-03-09T11:31:15.513Z,10.50
2024-03-09T11:33:48.559Z,10.56
2024-03-09T11:36:38.736Z,10.88
2024-03-09T11:39:06.011Z,11.19
2024-03-09T11:41:37.135Z,11.06
2024-03-09T11:44:07.588Z,11.19
2024-03-09T11:46:38.116Z,11.19
2024-03-09T11:49:06.083Z,11.25
2024-03-09T11:51:37.427Z,11.56
2024-03-09T11:54:10.028Z,11.88
2024-03-09T11:56:38.164Z,12.19
2024-03-09T11:59:08.007Z,12.25
2024-03-09T12:01:38.412Z,12.13
2024-03-09T12:04:06.941Z,11.81
2024-03-09T12:06:34.575Z,11.63
2024-03-09T12:09:01.845Z,11.69
2024-03-09T12:11:31.140Z,11.75
2024-03-09T12:13:58.783Z,11.94
2024-03-09T12:16:28.231Z,12.13
2024-03-09T12:19:01.077Z,12.50
2024-03-09T12:21:30.740Z,12.75
2024-03-09T12:24:02.162Z,13.06
2024-03-09T12:26:33.051Z,12.69
2024-03-09T12:29:06.313Z,12.56
2024-03-09T12:31:35.166Z,12.31
2024-03-09T12:34:08.886Z,12.56
2024-03-09T12:36:35.741Z,12.56
2024-03-09T12:39:16.658Z,12.63
2024-03-09T12:41:48.662Z,12.56
2024-03-09T12:44:15.555Z,12.56
2024-03-09T12:46:42.528Z,12.50
2024-03-09T12:49:13.137Z,12.63
2024-03-09T12:51:52.214Z,12.75
2024-03-09T12:54:20.665Z,13.13
2024-03-09T12:56:50.800Z,13.19
2024-03-09T12:59:28.249Z,12.94
2024-03-09T13:01:56.296Z,12.69
2024-03-09T13:04:27.831Z,12.56
2024-03-09T13:06:58.108Z,12.56
2024-03-09T13:09:32.779Z,12.69
2024-03-09T13:12:01.030Z,12.81
2024-03-09T13:14:38.667Z,13.06
2024-03-09T13:17:06.875Z,13.38
2024-03-09T13:19:35.105Z,13.63
2024-03-09T13:22:04.067Z,13.38
2024-03-09T13:24:31.889Z,13.25
2024-03-09T13:26:58.819Z,13.13
2024-03-09T13:29:30.261Z,13.13
2024-03-09T13:31:58.440Z,13.25
2024-03-09T13:34:27.476Z,13.31
2024-03-09T13:36:54.959Z,13.00
2024-03-09T13:39:28.845Z,13.00
2024-03-09T13:41:56.002Z,12.81
2024-03-09T13:44:25.667Z,12.75
2024-03-09T13:46:53.301Z,12.56
2024-03-09T13:49:20.622Z,12.69
2024-03-09T13:51:48.317Z,13.25
2024-03-09T13:54:19.031Z,13.25
2024-03-09T13:56:46.551Z,13.50
2024-03-09T13:59:17.057Z,13.50
2024-03-09T14:01:45.373Z,13.50
2024-03-09T14:04:13.764Z,13.38
2024-03-09T14:06:56.242Z,13.19
2024-03-09T14:09:33.373Z,13.19
2024-03-09T14:12:01.240Z,13.00
2024-03-09T14:14:28.919Z,13.19
2024-03-09T14:16:56.907Z,13.19
2024-03-09T14:19:23.608Z,13.25
2024-03-09T14:21:51.927Z,13.19
2024-03-09T14:24:19.551Z,13.31
2024-03-09T14:26:46.891Z,13.19
2024-03-09T14:29:16.360Z,13.19
2024-03-09T14:31:47.743Z,13.06
2024-03-09T14:34:15.040Z,13.06
2024-03-09T14:36:41.749Z,12.94
2024-03-09T14:39:17.689Z,12.88
2024-03-09T14:41:44.762Z,12.81
2024-03-09T14:44:11.511Z,12.75
2024-03-09T14:46:38.329Z,12.75
2024-03-09T14:49:09.470Z,12.88
2024-03-09T14:51:36.540Z,12.94
2024-03-09T14:54:03.311Z,12.94
2024-03-09T14:56:30.104Z,13.00
2024-03-09T14:58:57.335Z,12.94
2024-03-09T15:01:27.079Z,12.94
2024-03-09T15:03:55.431Z,12.81
2024-03-09T15:06:23.569Z,12.75
2024-03-09T15:08:56.679Z,12.69
2024-03-09T15:11:23.565Z,12.69
2024-03-09T15:13:55.006Z,12.69
2024-03-09T15:16:27.689Z,12.56
2024-03-09T15:18:54.962Z,12.44
2024-03-09T15:21:24.281Z,12.38
2024-03-09T15:23:59.559Z,12.38
2024-03-09T15:26:30.115Z,12.38
2024-03-09T15:28:59.061Z,12.56
2024-03-09T15:31:27.811Z,12.38
2024-03-09T15:33:56.265Z,12.44
2024-03-09T15:36:24.935Z,12.50
2024-03-09T15:38:55.372Z,12.38
2024-03-09T15:41:22.377Z,12.25
2024-03-09T15:43:50.184Z,12.19
2024-03-09T15:46:18.989Z,12.25
2024-03-09T15:48:46.793Z,12.19
2024-03-09T15:51:13.630Z,12.25
2024-03-09T15:53:41.735Z,12.19
2024-03-09T15:56:10.830Z,12.25
2024-03-09T15:58:41.606Z,12.19
2024-03-09T16:01:09.265Z,12.06
2024-03-09T16:03:37.222Z,12.00
2024-03-09T16:06:04.440Z,12.00
2024-03-09T16:08:31.609Z,11.94
2024-03-09T16:10:59.036Z,11.94
2024-03-09T16:13:26.061Z,11.88
2024-03-09T16:15:52.742Z,11.75
2024-03-09T16:18:19.605Z,11.75
2024-03-09T16:20:46.573Z,11.63
2024-03-09T16:23:17.037Z,11.56
2024-03-09T16:25:49.320Z,11.56
2024-03-09T16:28:17.642Z,11.63
2024-03-09T16:30:45.171Z,11.50
2024-03-09T16:33:12.655Z,11.50
2024-03-09T16:35:48.813Z,11.50
2024-03-09T16:38:25.593Z,11.56
2024-03-09T16:40:57.765Z,11.50
2024-03-09T16:43:33.097Z,11.50
2024-03-09T16:46:06.859Z,11.44
2024-03-09T16:48:38.094Z,11.38
2024-03-09T16:51:09.521Z,11.31
2024-03-09T16:53:39.734Z,11.25
2024-03-09T16:56:07.310Z,11.19
2024-03-09T16:58:34.130Z,11.13
2024-03-09T17:01:05.793Z,11.13
2024-03-09T17:03:34.006Z,11.06
2024-03-09T17:06:03.522Z,10.94
2024-03-09T17:08:30.621Z,10.81
2024-03-09T17:10:58.931Z,10.75
2024-03-09T17:13:25.817Z,10.69
2024-03-09T17:15:52.639Z,10.69
2024-03-09T17:18:22.770Z,10.63
2024-03-09T17:20:53.653Z,10.63
2024-03-09T17:23:22.076Z,10.56
2024-03-09T17:25:49.540Z,10.50
2024-03-09T17:28:21.357Z,10.44
2024-03-09T17:30:49.851Z,10.44
2024-03-09T17:33:17.257Z,10.44
2024-03-09T17:35:44.078Z,10.38
2024-03-09T17:38:11.647Z,10.31
2024-03-09T17:40:38.817Z,10.31
2024-03-09T17:43:05.697Z,10.25
2024-03-09T17:45:33.177Z,10.19
2024-03-09T17:48:00.621Z,10.13
2024-03-09T17:50:28.641Z,10.06
2024-03-09T17:53:00.145Z,10.00
2024-03-09T17:55:30.705Z,10.06
2024-03-09T17:58:09.241Z,9.94
2024-03-09T18:00:37.334Z,9.81
2024-03-09T18:03:06.030Z,9.81
2024-03-09T18:05:40.983Z,9.75
2024-03-09T18:08:13.468Z,9.69
2024-03-09T18:10:42.536Z,9.69
2024-03-09T18:13:12.009Z,9.63
2024-03-09T18:15:40.960Z,9.63
2024-03-09T18:18:12.113Z,9.56
2024-03-09T18:20:43.212Z,9.56
2024-03-09T18:23:11.373Z,9.63
2024-03-09T18:25:38.912Z,9.63
2024-03-09T18:28:08.992Z,9.56
2024-03-09T18:30:36.374Z,9.44
2024-03-09T18:33:07.908Z,9.44
2024-03-09T18:35:35.447Z,9.44
2024-03-09T18:38:03.569Z,9.44
2024-03-09T18:40:30.485Z,9.50
2024-03-09T18:43:01.051Z,9.38
2024-03-09T18:45:33.992Z,9.31
2024-03-09T18:48:01.701Z,9.38
2024-03-09T18:50:28.531Z,9.25
2024-03-09T18:52:59.256Z,9.19
2024-03-09T18:55:31.052Z,9.13
2024-03-09T18:58:00.745Z,9.06
2024-03-09T19:00:32.752Z,9.00
2024-03-09T19:03:01.846Z,9.00
2024-03-09T19:05:29.353Z,8.94
2024-03-09T19:07:57.650Z,8.94
2024-03-09T19:10:24.999Z,8.94
2024-03-09T19:12:52.550Z,8.94
2024-03-09T19:15:20.760Z,8.88
2024-03-09T19:17:50.907Z,8.94
2024-03-09T19:20:28.176Z,8.88
2024-03-09T19:22:56.354Z,8.81
2024-03-09T19:25:23.535Z,8.81
2024-03-09T19:27:53.303Z,8.75
2024-03-09T19:30:22.689Z,8.75
2024-03-09T19:32:51.733Z,8.69
2024-03-09T19:35:23.185Z,8.75
2024-03-09T19:37:50.822Z,8.75
2024-03-09T19:40:18.976Z,8.75
2024-03-09T19:42:48.494Z,8.81
2024-03-09T19:45:19.058Z,8.88
2024-03-09T19:47:49.851Z,8.81
2024-03-09T19:50:17.269Z,8.88
2024-03-09T19:52:48.003Z,8.81
2024-03-09T19:55:20.527Z,8.81
2024-03-09T19:57:48.777Z,8.81
2024-03-09T20:00:24.919Z,8.81
2024-03-09T20:02:53.777Z,8.75
2024-03-09T20:05:26.085Z,8.69
2024-03-09T20:07:57.001Z,8.75
2024-03-09T20:10:26.021Z,8.75
2024-03-09T20:12:54.699Z,8.81
2024-03-09T20:15:22.220Z,8.75
2024-03-09T20:17:57.061Z,8.75
2024-03-09T20:20:25.864Z,8.81
2024-03-09T20:22:58.209Z,8.75
2024-03-09T20:25:25.769Z,8.75
2024-03-09T20:27:52.623Z,8.69
2024-03-09T20:30:20.934Z,8.69
2024-03-09T20:32:48.925Z,8.69
2024-03-09T20:35:19.672Z,8.63
2024-03-09T20:37:48.571Z,8.63
2024-03-09T20:40:20.962Z,8.63
2024-03-09T20:42:50.165Z,8.69
2024-03-09T20:45:18.367Z,8.69
2024-03-09T20:47:46.336Z,8.56
2024-03-09T20:50:15.435Z,8.56
2024-03-09T20:52:43.829Z,8.56
2024-03-09T20:55:12.155Z,8.56
2024-03-09T20:57:39.224Z,8.56
2024-03-09T21:00:11.162Z,8.56
2024-03-09T21:02:43.086Z,8.50
2024-03-09T21:05:14.063Z,8.50
2024-03-09T21:07:44.278Z,8.50
2024-03-09T21:10:11.189Z,8.44
2024-03-09T21:12:39.374Z,8.44
2024-03-09T21:15:07.440Z,8.44
2024-03-09T21:17:35.394Z,8.44
2024-03-09T21:20:13.001Z,8.38
2024-03-09T21:22:40.346Z,8.38
2024-03-09T21:25:11.462Z,8.44
2024-03-09T21:27:45.520Z,8.38
2024-03-09T21:30:15.583Z,8.31
2024-03-09T21:32:47.193Z,8.38
2024-03-09T21:35:14.846Z,8.31
2024-03-09T21:37:47.137Z,8.31
2024-03-09T21:40:14.803Z,8.25
2024-03-09T21:42:44.244Z,8.19
2024-03-09T21:45:12.629Z,8.13
2024-03-09T21:47:40.311Z,8.13
2024-03-09T21:50:07.620Z,8.00
2024-03-09T21:52:34.756Z,7.94
2024-03-09T21:55:01.562Z,7.88
2024-03-09T21:57:28.418Z,7.88
2024-03-09T21:59:55.191Z,7.81
2024-03-09T22:02:22.274Z,7.81
2024-03-09T22:04:49.161Z,7.81
2024-03-09T22:07:15.904Z,7.81
2024-03-09T22:09:42.747Z,7.88
2024-03-09T22:12:12.031Z,8.00
2024-03-09T22:14:39.923Z,8.00
2024-03-09T22:17:07.723Z,8.00
2024-03-09T22:19:34.566Z,7.94
2024-03-09T22:22:01.913Z,7.94
2024-03-09T22:24:28.680Z,7.94
2024-03-09T22:26:56.414Z,7.94
2024-03-09T22:29:23.781Z,7.94
2024-03-09T22:31:50.747Z,7.94
2024-03-09T22:34:17.508Z,8.00
2024-03-09T22:36:44.552Z,7.94
2024-03-09T22:39:13.142Z,7.94
2024-03-09T22:41:39.928Z,7.94
2024-03-09T22:44:07.662Z,7.94
2024-03-09T22:46:35.736Z,7.94
2024-03-09T22:49:06.021Z,7.94
2024-03-09T22:51:34.095Z,7.88
2024-03-09T22:54:01.963Z,7.88
2024-03-09T22:56:28.938Z,7.94
2024-03-09T22:58:56.184Z,7.94
2024-03-09T23:01:26.537Z,7.88
2024-03-09T23:03:56.859Z,7.88
2024-03-09T23:06:23.661Z,7.81
2024-03-09T23:08:50.392Z,7.75
2024-03-09T23:11:19.300Z,7.69
2024-03-09T23:13:47.889Z,7.63
2024-03-09T23:16:15.348Z,7.50
2024-03-09T23:18:42.496Z,7.44
2024-03-09T23:21:09.557Z,7.38
2024-03-09T23:23:36.362Z,7.44
2024-03-09T23:26:03.234Z,7.38
2024-03-09T23:28:30.213Z,7.25
2024-03-09T23:30:56.954Z,7.38
2024-03-09T23:33:24.414Z,7.44
2024-03-09T23:35:51.154Z,7.44
2024-03-09T23:38:19.243Z,7.50
2024-03-09T23:40:46.020Z,7.56
2024-03-09T23:43:12.842Z,7.56
2024-03-09T23:45:39.797Z,7.56
2024-03-09T23:48:06.949Z,7.56
2024-03-09T23:50:34.063Z,7.56
2024-03-09T23:53:00.904Z,7.63
2024-03-09T23:55:29.689Z,7.63
2024-03-09T23:57:56.540Z,7.63
